sensor_id;sensor_type;location;lat;lon;timestamp;P1;durP1;ratioP1;P2;durP2;ratioP2
1174;SDS011;576;48.418;10.074;2024-01-30T00:00:26;7.67;;;6.67;;
1174;SDS011;576;48.418;10.074;2024-01-30T00:02:54;7.07;;;6.47;;
1174;SDS011;576;48.418;10.074;2024-01-30T00:05:23;6.90;;;6.30;;
1174;SDS011;576;48.418;10.074;2024-01-30T00:07:51;7.67;;;7.10;;
1174;SDS011;576;48.418;10.074;2024-01-30T00:10:20;6.80;;;6.30;;
1174;SDS011;576;48.418;10.074;2024-01-30T00:12:48;6.97;;;6.33;;
1174;SDS011;576;48.418;10.074;2024-01-30T00:15:16;7.10;;;6.47;;
1174;SDS011;576;48.418;10.074;2024-01-30T00:17:46;7.47;;;6.77;;
1174;SDS011;576;48.418;10.074;2024-01-30T00:20:14;7.53;;;6.87;;
1174;SDS011;576;48.418;10.074;2024-01-30T00:22:42;6.80;;;6.20;;
1174;SDS011;576;48.418;10.074;2024-01-30T00:25:11;6.37;;;5.77;;
1174;SDS011;576;48.418;10.074;2024-01-30T00:27:39;6.60;;;6.00;;
1174;SDS011;576;48.418;10.074;2024-01-30T00:30:08;6.83;;;6.23;;
1174;SDS011;576;48.418;10.074;2024-01-30T00:32:37;6.53;;;6.03;;
1174;SDS011;576;48.418;10.074;2024-01-30T00:35:07;7.10;;;6.50;;
1174;SDS011;576;48.418;10.074;2024-01-30T00:37:37;6.20;;;5.70;;
1174;SDS011;576;48.418;10.074;2024-01-30T00:40:05;7.17;;;6.57;;
1174;SDS011;576;48.418;10.074;2024-01-30T00:42:36;6.83;;;6.23;;
1174;SDS011;576;48.418;10.074;2024-01-30T00:45:05;6.37;;;5.87;;
1174;SDS011;576;48.418;10.074;2024-01-30T00:47:33;7.37;;;6.67;;
1174;SDS011;576;48.418;10.074;2024-01-30T00:50:02;7.47;;;6.90;;
1174;SDS011;576;48.418;10.074;2024-01-30T00:52:32;7.97;;;7.23;;
1174;SDS011;576;48.418;10.074;2024-01-30T00:55:00;7.70;;;7.00;;
1174;SDS011;576;48.418;10.074;2024-01-30T00:57:29;5.80;;;5.23;;
1174;SDS011;576;48.418;10.074;2024-01-30T00:59:57;6.63;;;6.03;;
1174;SDS011;576;48.418;10.074;2024-01-30T01:02:25;7.07;;;6.37;;
1174;SDS011;576;48.418;10.074;2024-01-30T01:04:54;7.20;;;6.60;;
1174;SDS011;576;48.418;10.074;2024-01-30T01:07:22;6.00;;;5.60;;
1174;SDS011;576;48.418;10.074;2024-01-30T01:09:52;6.40;;;5.80;;
1174;SDS011;576;48.418;10.074;2024-01-30T01:12:20;7.17;;;6.50;;
1174;SDS011;576;48.418;10.074;2024-01-30T01:14:48;7.27;;;6.60;;
1174;SDS011;576;48.418;10.074;2024-01-30T01:17:16;7.17;;;6.57;;
1174;SDS011;576;48.418;10.074;2024-01-30T01:19:45;8.33;;;7.63;;
1174;SDS011;576;48.418;10.074;2024-01-30T01:22:13;7.57;;;6.57;;
1174;SDS011;576;48.418;10.074;2024-01-30T01:24:43;7.10;;;6.40;;
1174;SDS011;576;48.418;10.074;2024-01-30T01:27:13;6.90;;;6.30;;
1174;SDS011;576;48.418;10.074;2024-01-30T01:29:41;7.03;;;6.33;;
1174;SDS011;576;48.418;10.074;2024-01-30T01:32:10;6.40;;;5.90;;
1174;SDS011;576;48.418;10.074;2024-01-30T01:34:38;7.07;;;6.47;;
1174;SDS011;576;48.418;10.074;2024-01-30T01:37:06;6.07;;;5.57;;
1174;SDS011;576;48.418;10.074;2024-01-30T01:39:35;6.37;;;5.87;;
1174;SDS011;576;48.418;10.074;2024-01-30T01:42:03;7.83;;;6.80;;
1174;SDS011;576;48.418;10.074;2024-01-30T01:44:33;6.57;;;6.07;;
1174;SDS011;576;48.418;10.074;2024-01-30T01:47:01;7.10;;;6.50;;
1174;SDS011;576;48.418;10.074;2024-01-30T01:49:31;6.10;;;5.60;;
1174;SDS011;576;48.418;10.074;2024-01-30T01:51:59;6.10;;;5.63;;
1174;SDS011;576;48.418;10.074;2024-01-30T01:54:28;6.30;;;5.80;;
1174;SDS011;576;48.418;10.074;2024-01-30T01:56:57;5.90;;;5.50;;
1174;SDS011;576;48.418;10.074;2024-01-30T01:59:26;6.03;;;5.57;;
1174;SDS011;576;48.418;10.074;2024-01-30T02:01:56;6.37;;;5.87;;
1174;SDS011;576;48.418;10.074;2024-01-30T02:04:24;6.27;;;5.77;;
1174;SDS011;576;48.418;10.074;2024-01-30T02:06:53;6.70;;;6.10;;
1174;SDS011;576;48.418;10.074;2024-01-30T02:09:21;7.03;;;6.40;;
1174;SDS011;576;48.418;10.074;2024-01-30T02:11:49;6.23;;;5.63;;
1174;SDS011;576;48.418;10.074;2024-01-30T02:14:19;7.20;;;6.60;;
1174;SDS011;576;48.418;10.074;2024-01-30T02:16:48;6.30;;;5.80;;
1174;SDS011;576;48.418;10.074;2024-01-30T02:19:17;6.27;;;5.80;;
1174;SDS011;576;48.418;10.074;2024-01-30T02:21:47;6.80;;;6.20;;
1174;SDS011;576;48.418;10.074;2024-01-30T02:24:16;6.70;;;6.20;;
1174;SDS011;576;48.418;10.074;2024-01-30T02:26:45;6.20;;;5.60;;
1174;SDS011;576;48.418;10.074;2024-01-30T02:29:17;6.00;;;5.50;;
1174;SDS011;576;48.418;10.074;2024-01-30T02:31:45;6.57;;;6.07;;
1174;SDS011;576;48.418;10.074;2024-01-30T02:34:13;5.70;;;5.20;;
1174;SDS011;576;48.418;10.074;2024-01-30T02:36:42;6.37;;;5.77;;
1174;SDS011;576;48.418;10.074;2024-01-30T02:39:11;6.30;;;5.80;;
1174;SDS011;576;48.418;10.074;2024-01-30T02:41:40;6.43;;;5.83;;
1174;SDS011;576;48.418;10.074;2024-01-30T02:44:08;6.23;;;5.77;;
1174;SDS011;576;48.418;10.074;2024-01-30T02:46:36;6.57;;;6.00;;
1174;SDS011;576;48.418;10.074;2024-01-30T02:49:05;5.73;;;5.23;;
1174;SDS011;576;48.418;10.074;2024-01-30T02:51:33;6.10;;;5.60;;
1174;SDS011;576;48.418;10.074;2024-01-30T02:54:01;6.47;;;5.87;;
1174;SDS011;576;48.418;10.074;2024-01-30T02:56:31;6.03;;;5.53;;
1174;SDS011;576;48.418;10.074;2024-01-30T02:58:59;5.67;;;5.17;;
1174;SDS011;576;48.418;10.074;2024-01-30T03:01:27;6.37;;;5.90;;
1174;SDS011;576;48.418;10.074;2024-01-30T03:03:56;5.90;;;5.40;;
1174;SDS011;576;48.418;10.074;2024-01-30T03:06:24;6.07;;;5.57;;
1174;SDS011;576;48.418;10.074;2024-01-30T03:08:52;5.77;;;5.27;;
1174;SDS011;576;48.418;10.074;2024-01-30T03:11:20;6.60;;;5.60;;
1174;SDS011;576;48.418;10.074;2024-01-30T03:13:50;6.13;;;5.43;;
1174;SDS011;576;48.418;10.074;2024-01-30T03:16:18;5.43;;;5.00;;
1174;SDS011;576;48.418;10.074;2024-01-30T03:18:46;5.80;;;5.40;;
1174;SDS011;576;48.418;10.074;2024-01-30T03:21:15;6.33;;;5.83;;
1174;SDS011;576;48.418;10.074;2024-01-30T03:23:44;6.40;;;5.80;;
1174;SDS011;576;48.418;10.074;2024-01-30T03:26:12;5.37;;;4.87;;
1174;SDS011;576;48.418;10.074;2024-01-30T03:28:41;5.67;;;5.27;;
1174;SDS011;576;48.418;10.074;2024-01-30T03:31:13;5.83;;;5.33;;
1174;SDS011;576;48.418;10.074;2024-01-30T03:33:43;6.10;;;5.50;;
1174;SDS011;576;48.418;10.074;2024-01-30T03:36:11;5.73;;;5.23;;
1174;SDS011;576;48.418;10.074;2024-01-30T03:38:40;5.90;;;5.40;;
1174;SDS011;576;48.418;10.074;2024-01-30T03:41:08;6.37;;;5.77;;
1174;SDS011;576;48.418;10.074;2024-01-30T03:43:36;6.27;;;5.77;;
1174;SDS011;576;48.418;10.074;2024-01-30T03:46:04;5.77;;;5.30;;
1174;SDS011;576;48.418;10.074;2024-01-30T03:48:34;5.70;;;5.30;;
1174;SDS011;576;48.418;10.074;2024-01-30T03:51:03;5.97;;;5.47;;
1174;SDS011;576;48.418;10.074;2024-01-30T03:53:32;5.80;;;5.40;;
1174;SDS011;576;48.418;10.074;2024-01-30T03:56:00;5.23;;;4.83;;
1174;SDS011;576;48.418;10.074;2024-01-30T03:58:29;4.87;;;4.50;;
1174;SDS011;576;48.418;10.074;2024-01-30T04:00:57;5.10;;;4.70;;
1174;SDS011;576;48.418;10.074;2024-01-30T04:03:26;5.30;;;4.83;;
1174;SDS011;576;48.418;10.074;2024-01-30T04:05:55;5.13;;;4.77;;
1174;SDS011;576;48.418;10.074;2024-01-30T04:08:24;5.50;;;5.10;;
1174;SDS011;576;48.418;10.074;2024-01-30T04:10:53;4.90;;;4.50;;
1174;SDS011;576;48.418;10.074;2024-01-30T04:13:21;5.90;;;5.00;;
1174;SDS011;576;48.418;10.074;2024-01-30T04:15:49;5.70;;;5.10;;
1174;SDS011;576;48.418;10.074;2024-01-30T04:18:18;5.30;;;4.90;;
1174;SDS011;576;48.418;10.074;2024-01-30T04:20:46;6.90;;;5.27;;
1174;SDS011;576;48.418;10.074;2024-01-30T04:23:16;5.60;;;5.20;;
1174;SDS011;576;48.418;10.074;2024-01-30T04:25:44;5.60;;;5.20;;
1174;SDS011;576;48.418;10.074;2024-01-30T04:28:13;5.43;;;4.93;;
1174;SDS011;576;48.418;10.074;2024-01-30T04:30:41;5.80;;;5.30;;
1174;SDS011;576;48.418;10.074;2024-01-30T04:33:10;5.70;;;5.30;;
1174;SDS011;576;48.418;10.074;2024-01-30T04:35:38;5.83;;;5.33;;
1174;SDS011;576;48.418;10.074;2024-01-30T04:38:06;5.00;;;4.60;;
1174;SDS011;576;48.418;10.074;2024-01-30T04:40:36;6.07;;;5.47;;
1174;SDS011;576;48.418;10.074;2024-01-30T04:43:04;5.47;;;5.00;;
1174;SDS011;576;48.418;10.074;2024-01-30T04:45:33;4.70;;;4.30;;
1174;SDS011;576;48.418;10.074;2024-01-30T04:48:01;5.40;;;5.00;;
1174;SDS011;576;48.418;10.074;2024-01-30T04:50:30;5.37;;;4.97;;
1174;SDS011;576;48.418;10.074;2024-01-30T04:52:58;6.00;;;5.47;;
1174;SDS011;576;48.418;10.074;2024-01-30T04:55:26;5.17;;;4.77;;
1174;SDS011;576;48.418;10.074;2024-01-30T04:57:56;5.73;;;5.23;;
1174;SDS011;576;48.418;10.074;2024-01-30T05:00:24;4.83;;;4.43;;
1174;SDS011;576;48.418;10.074;2024-01-30T05:02:54;5.43;;;5.03;;
1174;SDS011;576;48.418;10.074;2024-01-30T05:05:23;5.97;;;5.47;;
1174;SDS011;576;48.418;10.074;2024-01-30T05:07:51;5.00;;;4.70;;
1174;SDS011;576;48.418;10.074;2024-01-30T05:10:19;5.80;;;5.23;;
1174;SDS011;576;48.418;10.074;2024-01-30T05:12:48;4.70;;;4.30;;
1174;SDS011;576;48.418;10.074;2024-01-30T05:15:17;5.87;;;5.40;;
1174;SDS011;576;48.418;10.074;2024-01-30T05:17:46;5.20;;;4.80;;
1174;SDS011;576;48.418;10.074;2024-01-30T05:20:15;4.90;;;4.50;;
1174;SDS011;576;48.418;10.074;2024-01-30T05:22:44;5.00;;;4.50;;
1174;SDS011;576;48.418;10.074;2024-01-30T05:25:12;4.53;;;4.13;;
1174;SDS011;576;48.418;10.074;2024-01-30T05:27:41;4.60;;;4.30;;
1174;SDS011;576;48.418;10.074;2024-01-30T05:30:10;4.90;;;4.60;;
1174;SDS011;576;48.418;10.074;2024-01-30T05:32:40;5.17;;;4.77;;
1174;SDS011;576;48.418;10.074;2024-01-30T05:35:08;5.10;;;4.70;;
1174;SDS011;576;48.418;10.074;2024-01-30T05:37:36;4.97;;;4.57;;
1174;SDS011;576;48.418;10.074;2024-01-30T05:40:05;4.87;;;4.50;;
1174;SDS011;576;48.418;10.074;2024-01-30T05:42:36;5.10;;;4.67;;
1174;SDS011;576;48.418;10.074;2024-01-30T05:45:04;4.73;;;4.33;;
1174;SDS011;576;48.418;10.074;2024-01-30T05:47:34;5.00;;;4.60;;
1174;SDS011;576;48.418;10.074;2024-01-30T05:50:04;5.77;;;5.20;;
1174;SDS011;576;48.418;10.074;2024-01-30T05:52:34;4.43;;;4.13;;
1174;SDS011;576;48.418;10.074;2024-01-30T05:55:02;5.10;;;4.60;;
1174;SDS011;576;48.418;10.074;2024-01-30T05:57:32;4.90;;;4.50;;
1174;SDS011;576;48.418;10.074;2024-01-30T06:00:00;4.50;;;4.20;;
1174;SDS011;576;48.418;10.074;2024-01-30T06:02:30;4.43;;;3.93;;
1174;SDS011;576;48.418;10.074;2024-01-30T06:04:58;4.23;;;3.93;;
1174;SDS011;576;48.418;10.074;2024-01-30T06:07:28;4.97;;;4.50;;
1174;SDS011;576;48.418;10.074;2024-01-30T06:10:01;4.27;;;3.93;;
1174;SDS011;576;48.418;10.074;2024-01-30T06:12:30;4.47;;;4.17;;
1174;SDS011;576;48.418;10.074;2024-01-30T06:14:58;4.83;;;4.43;;
1174;SDS011;576;48.418;10.074;2024-01-30T06:17:27;5.10;;;4.60;;
1174;SDS011;576;48.418;10.074;2024-01-30T06:19:55;4.30;;;4.00;;
1174;SDS011;576;48.418;10.074;2024-01-30T06:22:24;4.50;;;4.17;;
1174;SDS011;576;48.418;10.074;2024-01-30T06:24:53;5.00;;;4.60;;
1174;SDS011;576;48.418;10.074;2024-01-30T06:27:22;4.53;;;4.13;;
1174;SDS011;576;48.418;10.074;2024-01-30T06:29:50;5.20;;;4.73;;
1174;SDS011;576;48.418;10.074;2024-01-30T06:32:18;4.23;;;3.93;;
1174;SDS011;576;48.418;10.074;2024-01-30T06:34:46;4.47;;;4.07;;
1174;SDS011;576;48.418;10.074;2024-01-30T06:37:15;7.77;;;4.60;;
1174;SDS011;576;48.418;10.074;2024-01-30T06:39:43;4.87;;;4.20;;
1174;SDS011;576;48.418;10.074;2024-01-30T06:42:13;4.93;;;4.53;;
1174;SDS011;576;48.418;10.074;2024-01-30T06:44:41;4.90;;;4.50;;
1174;SDS011;576;48.418;10.074;2024-01-30T06:47:09;5.50;;;5.00;;
1174;SDS011;576;48.418;10.074;2024-01-30T06:49:38;6.70;;;4.80;;
1174;SDS011;576;48.418;10.074;2024-01-30T06:52:08;6.40;;;5.80;;
1174;SDS011;576;48.418;10.074;2024-01-30T06:54:37;7.00;;;6.07;;
1174;SDS011;576;48.418;10.074;2024-01-30T06:57:06;9.10;;;5.73;;
1174;SDS011;576;48.418;10.074;2024-01-30T06:59:39;6.57;;;5.97;;
1174;SDS011;576;48.418;10.074;2024-01-30T07:02:09;6.43;;;5.83;;
1174;SDS011;576;48.418;10.074;2024-01-30T07:04:38;5.83;;;5.37;;
1174;SDS011;576;48.418;10.074;2024-01-30T07:07:13;5.47;;;5.00;;
1174;SDS011;576;48.418;10.074;2024-01-30T07:09:42;6.10;;;5.50;;
1174;SDS011;576;48.418;10.074;2024-01-30T07:12:11;5.53;;;5.03;;
1174;SDS011;576;48.418;10.074;2024-01-30T07:14:40;6.10;;;5.30;;
1174;SDS011;576;48.418;10.074;2024-01-30T07:17:08;6.70;;;6.00;;
1174;SDS011;576;48.418;10.074;2024-01-30T07:19:37;5.20;;;4.73;;
1174;SDS011;576;48.418;10.074;2024-01-30T07:22:05;6.13;;;5.10;;
1174;SDS011;576;48.418;10.074;2024-01-30T07:24:33;4.63;;;4.27;;
1174;SDS011;576;48.418;10.074;2024-01-30T07:27:02;5.73;;;5.20;;
1174;SDS011;576;48.418;10.074;2024-01-30T07:29:31;5.00;;;4.50;;
1174;SDS011;576;48.418;10.074;2024-01-30T07:32:00;5.57;;;5.07;;
1174;SDS011;576;48.418;10.074;2024-01-30T07:34:29;5.33;;;4.67;;
1174;SDS011;576;48.418;10.074;2024-01-30T07:36:59;6.67;;;4.80;;
1174;SDS011;576;48.418;10.074;2024-01-30T07:39:28;12.03;;;5.03;;
1174;SDS011;576;48.418;10.074;2024-01-30T07:41:56;8.43;;;4.90;;
1174;SDS011;576;48.418;10.074;2024-01-30T07:44:24;7.30;;;4.77;;
1174;SDS011;576;48.418;10.074;2024-01-30T07:46:52;6.60;;;5.10;;
1174;SDS011;576;48.418;10.074;2024-01-30T07:49:22;5.30;;;4.80;;
1174;SDS011;576;48.418;10.074;2024-01-30T07:51:51;8.33;;;5.37;;
1174;SDS011;576;48.418;10.074;2024-01-30T07:54:20;5.17;;;4.77;;
1174;SDS011;576;48.418;10.074;2024-01-30T07:56:48;5.20;;;4.70;;
1174;SDS011;576;48.418;10.074;2024-01-30T07:59:16;5.73;;;5.23;;
1174;SDS011;576;48.418;10.074;2024-01-30T08:01:48;4.87;;;4.47;;
1174;SDS011;576;48.418;10.074;2024-01-30T08:04:16;5.73;;;4.97;;
1174;SDS011;576;48.418;10.074;2024-01-30T08:06:46;9.90;;;4.87;;
1174;SDS011;576;48.418;10.074;2024-01-30T08:09:15;5.00;;;4.40;;
1174;SDS011;576;48.418;10.074;2024-01-30T08:11:43;6.10;;;5.10;;
1174;SDS011;576;48.418;10.074;2024-01-30T08:14:11;5.00;;;4.50;;
1174;SDS011;576;48.418;10.074;2024-01-30T08:16:40;4.80;;;4.40;;
1174;SDS011;576;48.418;10.074;2024-01-30T08:19:08;4.83;;;4.43;;
1174;SDS011;576;48.418;10.074;2024-01-30T08:21:37;5.80;;;5.30;;
1174;SDS011;576;48.418;10.074;2024-01-30T08:24:07;4.83;;;4.43;;
1174;SDS011;576;48.418;10.074;2024-01-30T08:26:35;4.93;;;4.47;;
1174;SDS011;576;48.418;10.074;2024-01-30T08:29:05;4.77;;;4.37;;
1174;SDS011;576;48.418;10.074;2024-01-30T08:31:33;9.57;;;4.80;;
1174;SDS011;576;48.418;10.074;2024-01-30T08:34:02;4.80;;;4.40;;
1174;SDS011;576;48.418;10.074;2024-01-30T08:36:30;4.77;;;4.37;;
1174;SDS011;576;48.418;10.074;2024-01-30T08:38:58;6.00;;;4.13;;
1174;SDS011;576;48.418;10.074;2024-01-30T08:41:32;4.30;;;3.90;;
1174;SDS011;576;48.418;10.074;2024-01-30T08:44:01;4.47;;;4.17;;
1174;SDS011;576;48.418;10.074;2024-01-30T08:46:30;5.47;;;5.00;;
1174;SDS011;576;48.418;10.074;2024-01-30T08:48:59;5.50;;;5.00;;
1174;SDS011;576;48.418;10.074;2024-01-30T08:51:27;4.70;;;4.30;;
1174;SDS011;576;48.418;10.074;2024-01-30T08:53:56;4.37;;;4.03;;
1174;SDS011;576;48.418;10.074;2024-01-30T08:56:24;4.20;;;3.70;;
1174;SDS011;576;48.418;10.074;2024-01-30T08:58:54;4.80;;;4.40;;
1174;SDS011;576;48.418;10.074;2024-01-30T09:01:22;4.67;;;4.27;;
1174;SDS011;576;48.418;10.074;2024-01-30T09:03:50;4.53;;;4.07;;
1174;SDS011;576;48.418;10.074;2024-01-30T09:06:19;4.67;;;4.23;;
1174;SDS011;576;48.418;10.074;2024-01-30T09:08:47;4.17;;;3.87;;
1174;SDS011;576;48.418;10.074;2024-01-30T09:11:15;4.47;;;4.07;;
1174;SDS011;576;48.418;10.074;2024-01-30T09:13:44;5.33;;;4.90;;
1174;SDS011;576;48.418;10.074;2024-01-30T09:16:14;3.90;;;3.70;;
1174;SDS011;576;48.418;10.074;2024-01-30T09:18:42;4.33;;;4.03;;
1174;SDS011;576;48.418;10.074;2024-01-30T09:21:10;4.77;;;4.30;;
1174;SDS011;576;48.418;10.074;2024-01-30T09:23:39;5.33;;;4.17;;
1174;SDS011;576;48.418;10.074;2024-01-30T09:26:07;5.43;;;4.13;;
1174;SDS011;576;48.418;10.074;2024-01-30T09:28:35;4.23;;;3.93;;
1174;SDS011;576;48.418;10.074;2024-01-30T09:31:04;3.80;;;3.50;;
1174;SDS011;576;48.418;10.074;2024-01-30T09:33:38;4.00;;;3.70;;
1174;SDS011;576;48.418;10.074;2024-01-30T09:36:08;4.43;;;4.00;;
1174;SDS011;576;48.418;10.074;2024-01-30T09:38:36;3.80;;;3.60;;
1174;SDS011;576;48.418;10.074;2024-01-30T09:41:05;3.93;;;3.53;;
1174;SDS011;576;48.418;10.074;2024-01-30T09:43:37;3.80;;;3.53;;
1174;SDS011;576;48.418;10.074;2024-01-30T09:46:06;4.00;;;3.70;;
1174;SDS011;576;48.418;10.074;2024-01-30T09:48:41;5.80;;;4.27;;
1174;SDS011;576;48.418;10.074;2024-01-30T09:51:10;3.77;;;3.47;;
1174;SDS011;576;48.418;10.074;2024-01-30T09:53:41;4.07;;;3.73;;
1174;SDS011;576;48.418;10.074;2024-01-30T09:56:12;3.93;;;3.63;;
1174;SDS011;576;48.418;10.074;2024-01-30T09:58:40;3.80;;;3.50;;
1174;SDS011;576;48.418;10.074;2024-01-30T10:01:08;3.70;;;3.40;;
1174;SDS011;576;48.418;10.074;2024-01-30T10:03:37;4.20;;;3.90;;
1174;SDS011;576;48.418;10.074;2024-01-30T10:06:07;4.93;;;4.40;;
1174;SDS011;576;48.418;10.074;2024-01-30T10:08:37;4.90;;;4.40;;
1174;SDS011;576;48.418;10.074;2024-01-30T10:11:05;4.13;;;3.83;;
1174;SDS011;576;48.418;10.074;2024-01-30T10:13:33;3.90;;;3.60;;
1174;SDS011;576;48.418;10.074;2024-01-30T10:16:01;4.30;;;3.90;;
1174;SDS011;576;48.418;10.074;2024-01-30T10:18:32;5.30;;;3.90;;
1174;SDS011;576;48.418;10.074;2024-01-30T10:21:01;5.00;;;4.60;;
1174;SDS011;576;48.418;10.074;2024-01-30T10:23:32;4.27;;;3.87;;
1174;SDS011;576;48.418;10.074;2024-01-30T10:26:02;4.60;;;4.20;;
1174;SDS011;576;48.418;10.074;2024-01-30T10:28:31;4.13;;;3.73;;
1174;SDS011;576;48.418;10.074;2024-01-30T10:30:59;3.80;;;3.50;;
1174;SDS011;576;48.418;10.074;2024-01-30T10:33:32;4.00;;;3.70;;
1174;SDS011;576;48.418;10.074;2024-01-30T10:36:01;3.63;;;3.33;;
1174;SDS011;576;48.418;10.074;2024-01-30T10:38:32;3.97;;;3.67;;
1174;SDS011;576;48.418;10.074;2024-01-30T10:41:01;3.40;;;3.20;;
1174;SDS011;576;48.418;10.074;2024-01-30T10:43:30;3.60;;;3.40;;
1174;SDS011;576;48.418;10.074;2024-01-30T10:46:03;4.37;;;4.00;;
1174;SDS011;576;48.418;10.074;2024-01-30T10:48:42;3.80;;;3.50;;
1174;SDS011;576;48.418;10.074;2024-01-30T10:51:11;3.67;;;3.30;;
1174;SDS011;576;48.418;10.074;2024-01-30T10:53:42;4.40;;;3.30;;
1174;SDS011;576;48.418;10.074;2024-01-30T10:56:15;3.83;;;3.53;;
1174;SDS011;576;48.418;10.074;2024-01-30T10:58:44;3.60;;;3.30;;
1174;SDS011;576;48.418;10.074;2024-01-30T11:01:13;4.70;;;4.10;;
1174;SDS011;576;48.418;10.074;2024-01-30T11:03:42;3.97;;;3.67;;
1174;SDS011;576;48.418;10.074;2024-01-30T11:06:11;4.07;;;3.77;;
1174;SDS011;576;48.418;10.074;2024-01-30T11:08:40;4.40;;;4.10;;
1174;SDS011;576;48.418;10.074;2024-01-30T11:11:10;3.60;;;3.30;;
1174;SDS011;576;48.418;10.074;2024-01-30T11:13:43;3.80;;;3.47;;
1174;SDS011;576;48.418;10.074;2024-01-30T11:16:11;4.10;;;3.60;;
1174;SDS011;576;48.418;10.074;2024-01-30T11:18:40;3.97;;;3.67;;
1174;SDS011;576;48.418;10.074;2024-01-30T11:21:08;3.80;;;3.50;;
1174;SDS011;576;48.418;10.074;2024-01-30T11:23:43;4.40;;;4.00;;
1174;SDS011;576;48.418;10.074;2024-01-30T11:26:11;3.80;;;3.50;;
1174;SDS011;576;48.418;10.074;2024-01-30T11:28:39;4.10;;;3.70;;
1174;SDS011;576;48.418;10.074;2024-01-30T11:31:08;3.93;;;3.57;;
1174;SDS011;576;48.418;10.074;2024-01-30T11:33:38;4.20;;;3.90;;
1174;SDS011;576;48.418;10.074;2024-01-30T11:36:07;5.10;;;4.60;;
1174;SDS011;576;48.418;10.074;2024-01-30T11:38:36;4.50;;;4.20;;
1174;SDS011;576;48.418;10.074;2024-01-30T11:41:08;4.73;;;4.33;;
1174;SDS011;576;48.418;10.074;2024-01-30T11:43:37;4.77;;;4.37;;
1174;SDS011;576;48.418;10.074;2024-01-30T11:46:05;3.87;;;3.57;;
1174;SDS011;576;48.418;10.074;2024-01-30T11:48:35;3.57;;;3.37;;
1174;SDS011;576;48.418;10.074;2024-01-30T11:51:04;4.10;;;3.80;;
1174;SDS011;576;48.418;10.074;2024-01-30T11:53:33;4.50;;;4.20;;
1174;SDS011;576;48.418;10.074;2024-01-30T11:56:01;5.00;;;3.93;;
1174;SDS011;576;48.418;10.074;2024-01-30T11:58:31;3.87;;;3.67;;
1174;SDS011;576;48.418;10.074;2024-01-30T12:01:00;4.07;;;3.77;;
1174;SDS011;576;48.418;10.074;2024-01-30T12:03:28;4.50;;;4.10;;
1174;SDS011;576;48.418;10.074;2024-01-30T12:05:57;4.00;;;3.70;;
1174;SDS011;576;48.418;10.074;2024-01-30T12:08:26;3.40;;;3.20;;
1174;SDS011;576;48.418;10.074;2024-01-30T12:10:55;3.60;;;3.30;;
1174;SDS011;576;48.418;10.074;2024-01-30T12:13:25;3.43;;;3.17;;
1174;SDS011;576;48.418;10.074;2024-01-30T12:16:00;4.97;;;4.50;;
1174;SDS011;576;48.418;10.074;2024-01-30T12:18:29;4.33;;;4.03;;
1174;SDS011;576;48.418;10.074;2024-01-30T12:20:57;4.77;;;4.37;;
1174;SDS011;576;48.418;10.074;2024-01-30T12:23:26;5.37;;;4.97;;
1174;SDS011;576;48.418;10.074;2024-01-30T12:25:56;4.13;;;3.83;;
1174;SDS011;576;48.418;10.074;2024-01-30T12:28:24;3.90;;;3.60;;
1174;SDS011;576;48.418;10.074;2024-01-30T12:30:55;4.20;;;3.73;;
1174;SDS011;576;48.418;10.074;2024-01-30T12:33:26;4.50;;;4.20;;
1174;SDS011;576;48.418;10.074;2024-01-30T12:35:55;5.27;;;4.77;;
1174;SDS011;576;48.418;10.074;2024-01-30T12:38:29;4.87;;;4.47;;
1174;SDS011;576;48.418;10.074;2024-01-30T12:40:57;5.17;;;4.70;;
1174;SDS011;576;48.418;10.074;2024-01-30T12:43:26;5.13;;;4.70;;
1174;SDS011;576;48.418;10.074;2024-01-30T12:46:04;5.33;;;4.83;;
1174;SDS011;576;48.418;10.074;2024-01-30T12:48:35;5.50;;;5.00;;
1174;SDS011;576;48.418;10.074;2024-01-30T12:51:03;6.30;;;5.60;;
1174;SDS011;576;48.418;10.074;2024-01-30T12:53:32;6.57;;;5.43;;
1174;SDS011;576;48.418;10.074;2024-01-30T12:56:00;6.57;;;5.20;;
1174;SDS011;576;48.418;10.074;2024-01-30T12:58:28;5.97;;;5.47;;
1174;SDS011;576;48.418;10.074;2024-01-30T13:00:57;7.00;;;6.43;;
1174;SDS011;576;48.418;10.074;2024-01-30T13:03:25;6.93;;;6.33;;
1174;SDS011;576;48.418;10.074;2024-01-30T13:05:57;6.60;;;6.00;;
1174;SDS011;576;48.418;10.074;2024-01-30T13:08:25;8.73;;;5.50;;
1174;SDS011;576;48.418;10.074;2024-01-30T13:10:54;6.23;;;5.73;;
1174;SDS011;576;48.418;10.074;2024-01-30T13:13:22;7.90;;;5.70;;
1174;SDS011;576;48.418;10.074;2024-01-30T13:15:50;6.07;;;5.47;;
1174;SDS011;576;48.418;10.074;2024-01-30T13:18:18;5.83;;;5.33;;
1174;SDS011;576;48.418;10.074;2024-01-30T13:20:47;6.20;;;5.60;;
1174;SDS011;576;48.418;10.074;2024-01-30T13:23:17;7.00;;;6.30;;
1174;SDS011;576;48.418;10.074;2024-01-30T13:25:45;5.50;;;5.03;;
1174;SDS011;576;48.418;10.074;2024-01-30T13:28:13;6.30;;;5.73;;
1174;SDS011;576;48.418;10.074;2024-01-30T13:30:42;5.70;;;5.17;;
1174;SDS011;576;48.418;10.074;2024-01-30T13:33:10;5.30;;;4.80;;
1174;SDS011;576;48.418;10.074;2024-01-30T13:35:39;6.70;;;6.10;;
1174;SDS011;576;48.418;10.074;2024-01-30T13:38:07;5.30;;;4.87;;
1174;SDS011;576;48.418;10.074;2024-01-30T13:40:37;5.40;;;4.90;;
1174;SDS011;576;48.418;10.074;2024-01-30T13:43:05;5.27;;;4.87;;
1174;SDS011;576;48.418;10.074;2024-01-30T13:45:34;6.00;;;5.40;;
1174;SDS011;576;48.418;10.074;2024-01-30T13:48:02;5.67;;;5.17;;
1174;SDS011;576;48.418;10.074;2024-01-30T13:50:31;5.77;;;5.27;;
1174;SDS011;576;48.418;10.074;2024-01-30T13:53:01;5.47;;;4.97;;
1174;SDS011;576;48.418;10.074;2024-01-30T13:55:30;6.50;;;4.97;;
1174;SDS011;576;48.418;10.074;2024-01-30T13:58:00;5.37;;;4.87;;
1174;SDS011;576;48.418;10.074;2024-01-30T14:00:29;5.47;;;5.07;;
1174;SDS011;576;48.418;10.074;2024-01-30T14:02:57;5.13;;;4.73;;
1174;SDS011;576;48.418;10.074;2024-01-30T14:05:26;7.40;;;5.63;;
1174;SDS011;576;48.418;10.074;2024-01-30T14:07:55;5.47;;;4.90;;
1174;SDS011;576;48.418;10.074;2024-01-30T14:10:24;5.10;;;4.60;;
1174;SDS011;576;48.418;10.074;2024-01-30T14:12:53;5.27;;;4.77;;
1174;SDS011;576;48.418;10.074;2024-01-30T14:15:23;5.00;;;4.60;;
1174;SDS011;576;48.418;10.074;2024-01-30T14:17:55;5.07;;;4.57;;
1174;SDS011;576;48.418;10.074;2024-01-30T14:20:25;4.77;;;4.33;;
1174;SDS011;576;48.418;10.074;2024-01-30T14:22:54;5.27;;;4.90;;
1174;SDS011;576;48.418;10.074;2024-01-30T14:25:23;5.13;;;4.67;;
1174;SDS011;576;48.418;10.074;2024-01-30T14:27:52;5.23;;;4.73;;
1174;SDS011;576;48.418;10.074;2024-01-30T14:30:20;5.20;;;4.70;;
1174;SDS011;576;48.418;10.074;2024-01-30T14:32:50;5.10;;;4.70;;
1174;SDS011;576;48.418;10.074;2024-01-30T14:35:19;4.50;;;4.13;;
1174;SDS011;576;48.418;10.074;2024-01-30T14:37:48;5.00;;;4.60;;
1174;SDS011;576;48.418;10.074;2024-01-30T14:40:17;5.83;;;5.33;;
1174;SDS011;576;48.418;10.074;2024-01-30T14:42:45;5.30;;;4.47;;
1174;SDS011;576;48.418;10.074;2024-01-30T14:45:14;5.00;;;4.50;;
1174;SDS011;576;48.418;10.074;2024-01-30T14:47:45;6.70;;;4.57;;
1174;SDS011;576;48.418;10.074;2024-01-30T14:50:14;6.67;;;4.93;;
1174;SDS011;576;48.418;10.074;2024-01-30T14:52:43;4.80;;;4.40;;
1174;SDS011;576;48.418;10.074;2024-01-30T14:55:12;5.73;;;4.40;;
1174;SDS011;576;48.418;10.074;2024-01-30T14:57:40;6.00;;;4.67;;
1174;SDS011;576;48.418;10.074;2024-01-30T15:00:12;5.17;;;4.20;;
1174;SDS011;576;48.418;10.074;2024-01-30T15:02:42;7.43;;;4.43;;
1174;SDS011;576;48.418;10.074;2024-01-30T15:05:13;6.17;;;4.80;;
1174;SDS011;576;48.418;10.074;2024-01-30T15:07:42;7.00;;;4.33;;
1174;SDS011;576;48.418;10.074;2024-01-30T15:10:11;6.60;;;4.43;;
1174;SDS011;576;48.418;10.074;2024-01-30T15:12:40;4.90;;;4.50;;
1174;SDS011;576;48.418;10.074;2024-01-30T15:15:08;4.87;;;4.47;;
1174;SDS011;576;48.418;10.074;2024-01-30T15:17:37;4.10;;;3.70;;
1174;SDS011;576;48.418;10.074;2024-01-30T15:20:08;5.37;;;4.87;;
1174;SDS011;576;48.418;10.074;2024-01-30T15:22:36;4.57;;;4.17;;
1174;SDS011;576;48.418;10.074;2024-01-30T15:25:06;6.10;;;4.23;;